createdAt,value
2018-05-12T00:02:07.517Z,51.90
2018-05-12T00:04:35.776Z,51.70
2018-05-12T00:07:03.305Z,51.70
2018-05-12T00:09:30.817Z,51.60
2018-05-12T00:11:59.115Z,51.60
2018-05-12T00:14:26.810Z,51.60
2018-05-12T00:16:54.584Z,51.50
2018-05-12T00:19:23.484Z,51.50
2018-05-12T00:21:51.396Z,51.50
2018-05-12T00:24:19.160Z,52.10
2018-05-12T00:26:46.848Z,51.40
2018-05-12T00:29:15.505Z,51.40
2018-05-12T00:31:43.294Z,51.40
2018-05-12T00:34:12.157Z,51.40
2018-05-12T00:36:40.970Z,51.40
2018-05-12T00:39:09.664Z,51.40
2018-05-12T00:41:37.251Z,51.40
2018-05-12T00:44:05.526Z,51.40
2018-05-12T00:46:34.760Z,51.40
2018-05-12T00:49:02.280Z,51.40
2018-05-12T00:51:30.544Z,51.40
2018-05-12T00:53:58.849Z,51.80
2018-05-12T00:56:26.391Z,51.20
2018-05-12T00:58:54.673Z,50.90
2018-05-12T01:01:22.979Z,50.90
2018-05-12T01:03:50.483Z,50.80
2018-05-12T01:06:18.032Z,50.50
2018-05-12T01:08:45.552Z,50.30
2018-05-12T01:11:13.086Z,50.30
2018-05-12T01:13:40.695Z,50.40
2018-05-12T01:16:09.084Z,50.50
2018-05-12T01:18:36.609Z,51.40
2018-05-12T01:21:04.128Z,51.10
2018-05-12T01:23:34.367Z,51.30
2018-05-12T01:26:01.872Z,51.30
2018-05-12T01:28:29.408Z,51.30
2018-05-12T01:30:56.907Z,51.40
2018-05-12T01:33:25.224Z,52.10
2018-05-12T01:35:52.735Z,51.70
2018-05-12T01:38:20.256Z,51.60
2018-05-12T01:40:47.785Z,51.20
2018-05-12T01:43:15.295Z,51.90
2018-05-12T01:45:42.844Z,51.80
2018-05-12T01:48:10.364Z,52.00
2018-05-12T01:50:37.899Z,51.90
2018-05-12T01:53:06.179Z,52.10
2018-05-12T01:55:33.735Z,52.00
2018-05-12T01:58:01.251Z,52.10
2018-05-12T02:00:28.755Z,52.20
2018-05-12T02:02:56.280Z,52.20
2018-05-12T02:05:23.795Z,52.20
2018-05-12T02:07:51.328Z,52.10
2018-05-12T02:10:18.864Z,52.50
2018-05-12T02:12:47.161Z,52.70
2018-05-12T02:15:14.674Z,52.70
2018-05-12T02:17:42.178Z,52.70
2018-05-12T02:20:09.704Z,52.90
2018-05-12T02:22:37.223Z,52.90
2018-05-12T02:25:04.744Z,53.00
2018-05-12T02:27:32.261Z,52.90
2018-05-12T02:29:59.788Z,52.90
2018-05-12T02:32:27.308Z,53.00
2018-05-12T02:34:54.812Z,53.10
2018-05-12T02:37:22.348Z,53.00
2018-05-12T02:39:49.863Z,52.90
2018-05-12T02:42:18.176Z,53.20
2018-05-12T02:44:45.683Z,53.10
2018-05-12T02:47:13.207Z,53.10
2018-05-12T02:49:40.725Z,53.30
2018-05-12T02:52:09.215Z,53.30
2018-05-12T02:54:37.527Z,53.20
2018-05-12T02:57:05.048Z,53.10
2018-05-12T02:59:32.577Z,53.10
2018-05-12T03:02:00.853Z,53.30
2018-05-12T03:04:29.333Z,53.30
2018-05-12T03:06:56.844Z,53.40
2018-05-12T03:09:24.376Z,53.40
2018-05-12T03:11:51.875Z,53.40
2018-05-12T03:14:19.373Z,53.40
2018-05-12T03:16:47.667Z,53.40
2018-05-12T03:19:15.294Z,53.40
2018-05-12T03:21:43.595Z,53.50
2018-05-12T03:24:11.110Z,53.50
2018-05-12T03:26:38.650Z,53.60
2018-05-12T03:29:06.151Z,53.50
2018-05-12T03:31:34.427Z,54.10
2018-05-12T03:34:02.726Z,54.00
2018-05-12T03:36:30.233Z,54.00
2018-05-12T03:38:57.768Z,54.10
2018-05-12T03:41:25.275Z,54.10
2018-05-12T03:43:53.571Z,54.30
2018-05-12T03:46:21.075Z,54.20
2018-05-12T03:48:48.623Z,54.30
2018-05-12T03:51:16.124Z,54.50
2018-05-12T03:53:44.399Z,54.50
2018-05-12T03:56:12.707Z,54.60
2018-05-12T03:58:41.168Z,54.50
2018-05-12T04:01:08.691Z,54.50
2018-05-12T04:03:36.201Z,54.50
2018-05-12T04:06:15.507Z,54.50
2018-05-12T04:08:55.759Z,54.60
2018-05-12T04:11:35.791Z,54.50
2018-05-12T04:14:04.161Z,54.50
2018-05-12T04:16:31.687Z,54.40
2018-05-12T04:18:59.199Z,54.50
2018-05-12T04:21:27.482Z,54.60
2018-05-12T04:23:55.770Z,54.30
2018-05-12T04:26:23.292Z,54.30
2018-05-12T04:28:50.837Z,54.40
2018-05-12T04:31:18.343Z,55.20
2018-05-12T04:33:47.412Z,54.30
2018-05-12T04:36:15.688Z,54.50
2018-05-12T04:38:43.993Z,54.50
2018-05-12T04:41:11.504Z,54.50
2018-05-12T04:43:39.985Z,54.40
2018-05-12T04:46:08.291Z,55.40
2018-05-12T04:48:35.803Z,54.50
2018-05-12T04:51:03.339Z,54.60
2018-05-12T04:53:30.844Z,54.70
2018-05-12T04:55:59.143Z,55.10
2018-05-12T04:58:26.647Z,55.00
2018-05-12T05:00:54.172Z,55.10
2018-05-12T05:03:21.723Z,55.10
2018-05-12T05:05:49.234Z,55.20
2018-05-12T05:08:17.633Z,55.70
2018-05-12T05:10:45.100Z,55.60
2018-05-12T05:13:12.633Z,55.60
2018-05-12T05:15:40.902Z,56.00
2018-05-12T05:18:08.404Z,55.90
2018-05-12T05:20:35.941Z,55.70
2018-05-12T05:23:04.207Z,55.70
2018-05-12T05:25:34.479Z,55.60
2018-05-12T05:28:01.979Z,55.60
2018-05-12T05:30:30.271Z,55.60
2018-05-12T05:32:57.790Z,55.50
2018-05-12T05:35:25.328Z,55.50
2018-05-12T05:37:52.900Z,55.40
2018-05-12T05:40:20.419Z,55.40
2018-05-12T05:42:47.948Z,55.20
2018-05-12T05:45:16.211Z,55.20
2018-05-12T05:47:44.506Z,55.50
2018-05-12T05:50:12.106Z,55.10
2018-05-12T05:52:39.583Z,55.00
2018-05-12T05:55:08.075Z,54.60
2018-05-12T05:57:35.607Z,55.00
2018-05-12T06:00:03.114Z,55.10
2018-05-12T06:02:31.393Z,55.20
2018-05-12T06:04:59.691Z,55.20
2018-05-12T06:07:27.191Z,55.20
2018-05-12T06:09:54.748Z,55.50
2018-05-12T06:12:23.215Z,55.50
2018-05-12T06:14:50.742Z,55.80
2018-05-12T06:17:18.258Z,56.00
2018-05-12T06:19:47.470Z,55.80
2018-05-12T06:22:15.775Z,55.90
2018-05-12T06:24:43.275Z,55.90
2018-05-12T06:27:12.732Z,55.80
2018-05-12T06:29:40.239Z,56.00
2018-05-12T06:32:07.767Z,56.00
2018-05-12T06:34:35.302Z,56.10
2018-05-12T06:37:02.835Z,56.30
2018-05-12T06:39:31.132Z,57.00
2018-05-12T06:41:58.665Z,57.00
2018-05-12T06:44:26.959Z,57.30
2018-05-12T06:46:55.419Z,57.30
2018-05-12T06:49:23.714Z,58.10
2018-05-12T06:51:51.225Z,57.50
2018-05-12T06:54:18.766Z,57.50
2018-05-12T06:56:46.284Z,57.60
2018-05-12T06:59:13.796Z,57.60
2018-05-12T07:01:41.351Z,57.50
2018-05-12T07:04:09.818Z,57.70
2018-05-12T07:06:37.352Z,57.90
2018-05-12T07:09:04.855Z,57.90
2018-05-12T07:11:32.383Z,58.00
2018-05-12T07:13:59.889Z,58.30
2018-05-12T07:16:28.184Z,58.20
2018-05-12T07:18:55.694Z,58.20
2018-05-12T07:21:23.206Z,58.20
2018-05-12T07:23:50.727Z,58.10
2018-05-12T07:26:18.998Z,58.70
2018-05-12T07:28:47.294Z,58.90
2018-05-12T07:31:14.809Z,58.80
2018-05-12T07:33:42.363Z,58.60
2018-05-12T07:36:11.391Z,58.40
2018-05-12T07:38:39.654Z,58.10
2018-05-12T07:41:07.955Z,57.90
2018-05-12T07:43:35.477Z,57.70
2018-05-12T07:46:03.028Z,57.70
2018-05-12T07:48:30.554Z,57.30
2018-05-12T07:50:58.088Z,57.10
2018-05-12T07:53:26.552Z,56.90
2018-05-12T07:55:54.839Z,56.50
2018-05-12T07:58:23.297Z,56.50
2018-05-12T08:00:51.581Z,56.10
2018-05-12T08:03:19.877Z,55.90
2018-05-12T08:05:47.383Z,55.90
2018-05-12T08:08:14.923Z,55.90
2018-05-12T08:10:42.439Z,55.80
2018-05-12T08:13:09.980Z,55.80
2018-05-12T08:15:38.256Z,55.60
2018-05-12T08:18:06.533Z,55.50
2018-05-12T08:20:35.850Z,55.60
2018-05-12T08:23:03.358Z,55.60
2018-05-12T08:25:31.650Z,56.00
2018-05-12T08:27:59.172Z,55.30
2018-05-12T08:30:28.670Z,55.30
2018-05-12T08:32:56.187Z,55.30
2018-05-12T08:35:24.488Z,55.20
2018-05-12T08:37:52.003Z,55.20
2018-05-12T08:40:19.631Z,55.10
2018-05-12T08:42:47.064Z,55.20
2018-05-12T08:45:16.015Z,55.10
2018-05-12T08:47:44.317Z,55.10
2018-05-12T08:50:11.852Z,55.10
2018-05-12T08:52:40.144Z,55.00
2018-05-12T08:55:07.651Z,55.00
2018-05-12T08:57:35.188Z,54.80
2018-05-12T09:00:03.648Z,54.80
2018-05-12T09:02:31.172Z,54.70
2018-05-12T09:04:59.455Z,54.60
2018-05-12T09:07:27.752Z,54.60
2018-05-12T09:09:55.283Z,54.50
2018-05-12T09:12:23.584Z,54.40
2018-05-12T09:14:51.096Z,54.40
2018-05-12T09:17:18.595Z,54.40
2018-05-12T09:19:46.129Z,54.50
2018-05-12T09:22:14.467Z,54.60
2018-05-12T09:24:41.975Z,54.40
2018-05-12T09:27:10.320Z,54.30
2018-05-12T09:29:37.868Z,54.20
2018-05-12T09:32:06.325Z,54.10
2018-05-12T09:34:33.831Z,54.10
2018-05-12T09:37:02.136Z,54.00
2018-05-12T09:39:29.660Z,54.70
2018-05-12T09:41:57.952Z,54.20
2018-05-12T09:44:26.233Z,54.00
2018-05-12T09:46:53.735Z,54.00
2018-05-12T09:49:21.287Z,54.00
2018-05-12T09:51:48.811Z,54.00
2018-05-12T09:54:16.334Z,53.90
2018-05-12T09:56:44.810Z,53.90
2018-05-12T09:59:12.352Z,53.90
2018-05-12T10:01:39.852Z,54.40
2018-05-12T10:04:10.110Z,53.80
2018-05-12T10:06:37.610Z,53.80
2018-05-12T10:09:05.114Z,53.70
2018-05-12T10:11:32.637Z,53.60
2018-05-12T10:14:00.927Z,53.70
2018-05-12T10:16:28.444Z,53.70
2018-05-12T10:18:55.950Z,53.60
2018-05-12T10:21:23.475Z,53.70
2018-05-12T10:23:51.761Z,53.60
2018-05-12T10:26:20.102Z,54.30
2018-05-12T10:28:47.593Z,53.60
2018-05-12T10:31:15.872Z,53.70
2018-05-12T10:33:44.156Z,53.60
2018-05-12T10:36:12.600Z,53.60
2018-05-12T10:38:40.247Z,53.50
2018-05-12T10:41:07.755Z,53.50
2018-05-12T10:43:35.577Z,53.40
2018-05-12T10:46:04.223Z,53.40
2018-05-12T10:48:32.090Z,53.40
2018-05-12T10:51:01.899Z,53.40
2018-05-12T10:53:29.765Z,53.40
2018-05-12T10:55:58.765Z,53.30
2018-05-12T10:58:26.485Z,53.30
2018-05-12T11:00:56.136Z,53.40
2018-05-12T11:03:23.989Z,53.30
2018-05-12T11:05:51.754Z,53.30
2018-05-12T11:08:19.278Z,53.30
2018-05-12T11:10:47.793Z,53.30
2018-05-12T11:13:17.301Z,53.30
2018-05-12T11:15:44.904Z,53.30
2018-05-12T11:18:13.109Z,53.30
2018-05-12T11:20:40.606Z,53.20
2018-05-12T11:23:08.131Z,53.40
2018-05-12T11:25:36.606Z,53.30
2018-05-12T11:28:04.130Z,53.20
2018-05-12T11:30:32.395Z,53.10
2018-05-12T11:32:59.895Z,53.10
2018-05-12T11:35:27.436Z,53.20
2018-05-12T11:37:55.698Z,53.00
2018-05-12T11:40:23.259Z,53.00
2018-05-12T11:42:51.515Z,53.00
2018-05-12T11:45:19.050Z,53.00
2018-05-12T11:47:46.551Z,53.00
2018-05-12T11:50:14.840Z,53.10
2018-05-12T11:52:42.365Z,53.10
2018-05-12T11:55:09.884Z,53.70
2018-05-12T11:57:37.412Z,53.80
2018-05-12T12:00:04.931Z,53.90
2018-05-12T12:02:32.487Z,53.80
2018-05-12T12:04:59.995Z,54.20
2018-05-12T12:07:27.514Z,54.00
2018-05-12T12:09:55.782Z,54.00
2018-05-12T12:12:23.304Z,54.00
2018-05-12T12:14:50.855Z,53.90
2018-05-12T12:17:18.364Z,54.00
2018-05-12T12:19:46.678Z,54.00
2018-05-12T12:22:14.209Z,54.00
2018-05-12T12:24:42.479Z,54.00
2018-05-12T12:27:10.771Z,53.80
2018-05-12T12:29:39.039Z,53.70
2018-05-12T12:32:07.335Z,53.60
2018-05-12T12:34:34.849Z,53.60
2018-05-12T12:37:02.349Z,53.50
2018-05-12T12:39:29.894Z,53.50
2018-05-12T12:41:58.172Z,54.20
2018-05-12T12:44:27.651Z,54.80
2018-05-12T12:46:55.924Z,54.10
2018-05-12T12:49:23.463Z,54.10
2018-05-12T12:51:50.988Z,53.90
2018-05-12T12:54:18.484Z,53.90
2018-05-12T12:56:46.016Z,54.30
2018-05-12T12:59:13.534Z,54.60
2018-05-12T13:01:41.060Z,54.40
2018-05-12T13:04:09.335Z,53.40
2018-05-12T13:06:36.868Z,53.90
2018-05-12T13:09:04.381Z,53.80
2018-05-12T13:11:31.880Z,53.80
2018-05-12T13:13:59.445Z,54.40
2018-05-12T13:16:26.958Z,54.60
2018-05-12T13:18:54.482Z,54.80
2018-05-12T13:21:22.945Z,54.80
2018-05-12T13:23:50.486Z,54.70
2018-05-12T13:26:17.987Z,55.10
2018-05-12T13:28:46.273Z,55.00
2018-05-12T13:31:14.543Z,55.00
2018-05-12T13:33:42.823Z,55.20
2018-05-12T13:36:11.228Z,54.90
2018-05-12T13:38:38.651Z,54.80
2018-05-12T13:41:06.940Z,55.00
2018-05-12T13:43:34.439Z,54.90
2018-05-12T13:46:01.954Z,54.90
2018-05-12T13:48:29.455Z,55.30
2018-05-12T13:50:56.963Z,55.10
2018-05-12T13:53:25.258Z,55.00
2018-05-12T13:55:52.810Z,55.00
2018-05-12T13:58:20.303Z,54.90
2018-05-12T14:00:47.807Z,54.80
2018-05-12T14:03:16.095Z,54.70
2018-05-12T14:05:43.599Z,54.80
2018-05-12T14:08:11.129Z,54.70
2018-05-12T14:10:38.688Z,54.70
2018-05-12T14:13:06.185Z,54.60
2018-05-12T14:15:33.710Z,54.50
2018-05-12T14:18:01.293Z,54.40
2018-05-12T14:20:29.512Z,54.30
2018-05-12T14:22:57.015Z,54.20
2018-05-12T14:25:24.555Z,54.20
2018-05-12T14:27:52.055Z,54.10
2018-05-12T14:30:20.363Z,54.10
2018-05-12T14:32:47.864Z,53.90
2018-05-12T14:35:16.295Z,54.00
2018-05-12T14:37:43.811Z,54.00
2018-05-12T14:40:11.316Z,53.90
2018-05-12T14:42:38.854Z,53.80
2018-05-12T14:45:07.134Z,53.90
2018-05-12T14:47:34.639Z,53.70
2018-05-12T14:50:02.168Z,53.80
2018-05-12T14:52:29.674Z,53.90
2018-05-12T14:54:57.220Z,54.30
2018-05-12T14:57:24.736Z,54.20
2018-05-12T14:59:52.275Z,54.10
2018-05-12T15:02:20.548Z,54.20
2018-05-12T15:07:22.747Z,54.20
2018-05-12T15:09:50.271Z,54.20
2018-05-12T15:12:18.543Z,54.10
2018-05-12T15:14:46.910Z,54.10
2018-05-12T15:17:15.122Z,54.10
2018-05-12T15:19:42.624Z,54.10
2018-05-12T15:22:10.144Z,54.10
2018-05-12T15:24:38.402Z,54.10
2018-05-12T15:27:07.888Z,54.00
2018-05-12T15:29:36.159Z,54.00
2018-05-12T15:32:03.668Z,54.00
2018-05-12T15:34:31.188Z,54.00
2018-05-12T15:37:00.406Z,54.00
2018-05-12T15:39:27.928Z,54.00
2018-05-12T15:41:56.194Z,54.70
2018-05-12T15:44:23.724Z,54.00
2018-05-12T15:46:51.222Z,54.10
2018-05-12T15:49:20.251Z,54.10
2018-05-12T15:51:48.603Z,54.10
2018-05-12T15:54:17.816Z,54.30
2018-05-12T15:56:45.359Z,54.30
2018-05-12T15:59:13.621Z,54.70
2018-05-12T16:01:43.104Z,54.60
2018-05-12T16:04:10.597Z,54.70
2018-05-12T16:06:38.879Z,54.50
2018-05-12T16:09:06.388Z,54.40
2018-05-12T16:11:33.897Z,54.20
2018-05-12T16:14:01.419Z,54.50
2018-05-12T16:16:28.924Z,54.40
2018-05-12T16:18:56.540Z,54.30
2018-05-12T16:21:25.762Z,54.40
2018-05-12T16:23:54.051Z,54.20
2018-05-12T16:26:21.555Z,54.20
2018-05-12T16:28:49.072Z,54.90
2018-05-12T16:31:16.579Z,54.70
2018-05-12T16:33:44.079Z,54.50
2018-05-12T16:36:11.611Z,54.40
2018-05-12T16:38:39.884Z,54.80
2018-05-12T16:41:08.180Z,54.80
2018-05-12T16:43:35.686Z,54.80
2018-05-12T16:46:03.247Z,54.90
2018-05-12T16:48:30.751Z,54.70
2018-05-12T16:50:58.386Z,54.50
2018-05-12T16:53:26.566Z,54.80
2018-05-12T16:55:55.635Z,55.40
2018-05-12T16:58:23.155Z,55.40
2018-05-12T17:00:50.661Z,55.20
2018-05-12T17:03:19.687Z,54.90
2018-05-12T17:05:47.207Z,54.90
2018-05-12T17:08:14.733Z,55.00
2018-05-12T17:10:42.242Z,55.30
2018-05-12T17:13:10.549Z,55.20
2018-05-12T17:15:38.079Z,55.00
2018-05-12T17:18:06.364Z,55.20
2018-05-12T17:20:33.887Z,55.20
2018-05-12T17:23:01.397Z,55.20
2018-05-12T17:25:28.930Z,54.90
2018-05-12T17:27:56.447Z,55.40
2018-05-12T17:30:23.979Z,55.50
2018-05-12T17:32:51.491Z,55.60
2018-05-12T17:35:19.755Z,55.30
2018-05-12T17:37:47.282Z,55.30
2018-05-12T17:40:15.739Z,55.70
2018-05-12T17:42:43.260Z,55.80
2018-05-12T17:45:11.539Z,55.70
2018-05-12T17:47:39.826Z,55.70
2018-05-12T17:50:07.463Z,55.70
2018-05-12T17:52:35.643Z,55.30
2018-05-12T17:55:03.927Z,55.30
2018-05-12T17:57:32.187Z,55.20
2018-05-12T17:59:59.732Z,55.20
2018-05-12T18:02:27.229Z,55.50
2018-05-12T18:04:56.736Z,55.40
2018-05-12T18:07:24.260Z,55.30
2018-05-12T18:09:52.556Z,55.40
2018-05-12T18:12:20.063Z,55.30
2018-05-12T18:14:47.571Z,55.40
2018-05-12T18:17:15.928Z,55.50
2018-05-12T18:19:43.392Z,55.50
2018-05-12T18:22:11.688Z,55.60
2018-05-12T18:24:39.203Z,55.60
2018-05-12T18:27:06.767Z,55.60
2018-05-12T18:29:36.735Z,55.70
2018-05-12T18:32:04.230Z,55.70
2018-05-12T18:34:31.754Z,55.70
2018-05-12T18:36:59.263Z,55.80
2018-05-12T18:39:26.791Z,55.80
2018-05-12T18:41:55.239Z,55.90
2018-05-12T18:44:22.829Z,55.90
2018-05-12T18:46:50.323Z,55.90
2018-05-12T18:49:19.580Z,56.00
2018-05-12T18:51:47.115Z,55.90
2018-05-12T18:54:14.643Z,55.80
2018-05-12T18:56:43.250Z,55.70
2018-05-12T18:59:11.014Z,55.70
2018-05-12T19:01:38.879Z,55.60
2018-05-12T19:04:07.683Z,55.50
2018-05-12T19:06:36.250Z,55.30
2018-05-12T19:09:05.301Z,55.30
2018-05-12T19:11:33.824Z,55.20
2018-05-12T19:14:01.695Z,55.20
2018-05-12T19:16:29.451Z,55.10
2018-05-12T19:18:57.112Z,55.10
2018-05-12T19:21:24.743Z,55.20
2018-05-12T19:23:53.561Z,55.50
2018-05-12T19:26:21.094Z,55.30
2018-05-12T19:28:48.648Z,55.20
2018-05-12T19:31:16.963Z,55.10
2018-05-12T19:33:44.443Z,55.10
2018-05-12T19:36:11.976Z,55.10
2018-05-12T19:38:39.495Z,55.10
2018-05-12T19:41:07.791Z,55.60
2018-05-12T19:43:35.323Z,55.60
2018-05-12T19:46:03.607Z,55.00
2018-05-12T19:48:31.872Z,55.00
2018-05-12T19:51:00.163Z,55.00
2018-05-12T19:53:27.696Z,55.00
2018-05-12T19:55:55.999Z,54.90
2018-05-12T19:58:23.507Z,54.90
2018-05-12T20:00:51.027Z,54.80
2018-05-12T20:03:18.561Z,55.50
2018-05-12T20:05:46.068Z,54.80
2018-05-12T20:08:13.583Z,54.80
2018-05-12T20:10:41.092Z,54.70
2018-05-12T20:13:08.637Z,54.70
2018-05-12T20:15:36.130Z,54.60
2018-05-12T20:18:04.419Z,54.60
2018-05-12T20:20:32.682Z,54.50
2018-05-12T20:23:00.957Z,54.40
2018-05-12T20:25:29.247Z,54.30
2018-05-12T20:27:57.525Z,54.40
2018-05-12T20:30:25.044Z,54.40
2018-05-12T20:32:52.556Z,54.50
2018-05-12T20:35:20.083Z,54.50
2018-05-12T20:37:48.380Z,54.60
2018-05-12T20:40:17.900Z,54.60
2018-05-12T20:42:45.438Z,54.60
2018-05-12T20:45:12.985Z,54.50
2018-05-12T20:47:41.265Z,54.70
2018-05-12T20:50:09.532Z,54.60
2018-05-12T20:52:39.767Z,54.50
2018-05-12T20:55:07.345Z,54.50
2018-05-12T20:57:34.877Z,54.60
2018-05-12T21:00:02.388Z,54.50
2018-05-12T21:02:29.892Z,54.50
2018-05-12T21:04:58.188Z,54.40
2018-05-12T21:07:25.697Z,54.40
2018-05-12T21:09:54.958Z,55.20
2018-05-12T21:12:22.461Z,54.40
2018-05-12T21:14:50.764Z,54.40
2018-05-12T21:17:18.267Z,54.30
2018-05-12T21:19:47.739Z,54.30
2018-05-12T21:22:15.269Z,54.30
2018-05-12T21:24:42.794Z,54.30
2018-05-12T21:27:10.613Z,54.30
2018-05-12T21:29:38.156Z,54.20
2018-05-12T21:32:05.710Z,54.00
2018-05-12T21:34:33.228Z,54.00
2018-05-12T21:37:01.685Z,54.20
2018-05-12T21:39:29.204Z,54.30
2018-05-12T21:41:56.727Z,54.20
2018-05-12T21:44:24.249Z,54.90
2018-05-12T21:46:51.743Z,54.30
2018-05-12T21:49:20.027Z,54.20
2018-05-12T21:51:47.529Z,54.20
2018-05-12T21:54:15.048Z,54.10
2018-05-12T21:56:43.334Z,54.10
2018-05-12T21:59:11.594Z,54.10
2018-05-12T22:01:39.887Z,54.10
2018-05-12T22:04:07.427Z,54.10
2018-05-12T22:06:35.717Z,54.20
2018-05-12T22:09:03.985Z,54.50
2018-05-12T22:11:34.247Z,54.50
2018-05-12T22:14:01.748Z,54.50
2018-05-12T22:16:30.785Z,54.50
2018-05-12T22:18:58.296Z,54.50
2018-05-12T22:21:25.804Z,54.60
2018-05-12T22:23:53.335Z,54.60
2018-05-12T22:26:21.640Z,54.70
2018-05-12T22:28:49.163Z,54.70
2018-05-12T22:31:17.439Z,55.70
2018-05-12T22:33:47.678Z,55.30
2018-05-12T22:36:15.185Z,55.30
2018-05-12T22:38:44.265Z,55.50
2018-05-12T22:41:11.738Z,55.50
2018-05-12T22:43:39.234Z,55.50
2018-05-12T22:46:06.846Z,55.50
2018-05-12T22:48:35.118Z,55.50
2018-05-12T22:51:02.624Z,55.50
2018-05-12T22:53:30.121Z,55.30
2018-05-12T22:55:57.648Z,55.30
2018-05-12T22:58:25.146Z,55.30
2018-05-12T23:00:52.639Z,55.30
2018-05-12T23:03:20.918Z,55.30
2018-05-12T23:05:50.127Z,55.20
2018-05-12T23:08:17.635Z,55.20
2018-05-12T23:10:45.426Z,55.20
2018-05-12T23:13:14.213Z,55.20
2018-05-12T23:15:41.808Z,55.20
2018-05-12T23:18:10.438Z,55.20
2018-05-12T23:20:39.076Z,55.10
2018-05-12T23:23:08.274Z,55.10
2018-05-12T23:25:36.142Z,55.20
2018-05-12T23:28:03.805Z,55.30
2018-05-12T23:30:31.503Z,55.20
2018-05-12T23:33:00.144Z,55.20
2018-05-12T23:35:28.010Z,55.20
2018-05-12T23:37:55.874Z,55.20
2018-05-12T23:40:24.709Z,55.10
2018-05-12T23:42:53.550Z,55.00
2018-05-12T23:45:21.417Z,54.80
2018-05-12T23:47:50.306Z,54.80
2018-05-12T23:50:18.108Z,54.80
2018-05-12T23:52:45.628Z,54.90
2018-05-12T23:55:14.080Z,54.80
2018-05-12T23:57:42.894Z,54.80
